sensor_id;sensor_type;location;lat;lon;timestamp;pressure;altitude;pressure_sealevel;temperature;humidity
27425;BME280;15244;49.088;11.886;2022-09-09T00:01:07;95573.81;;;19.84;49.88
27425;BME280;15244;49.088;11.886;2022-09-09T00:06:19;95583.34;;;19.83;50.37
27425;BME280;15244;49.088;11.886;2022-09-09T00:16:55;95583.47;;;19.80;50.77
27425;BME280;15244;49.088;11.886;2022-09-09T00:22:16;95583.16;;;19.78;50.86
27425;BME280;15244;49.088;11.886;2022-09-09T00:27:45;95570.53;;;19.77;51.16
27425;BME280;15244;49.088;11.886;2022-09-09T00:32:44;95565.56;;;19.72;51.29
27425;BME280;15244;49.088;11.886;2022-09-09T00:37:47;95570.78;;;19.69;51.61
27425;BME280;15244;49.088;11.886;2022-09-09T00:42:59;95564.16;;;19.67;52.17
27425;BME280;15244;49.088;11.886;2022-09-09T00:48:10;95562.59;;;19.66;52.00
27425;BME280;15244;49.088;11.886;2022-09-09T00:53:22;95573.31;;;19.64;52.19
27425;BME280;15244;49.088;11.886;2022-09-09T00:58:25;95572.97;;;19.62;52.43
27425;BME280;15244;49.088;11.886;2022-09-09T01:03:35;95588.81;;;19.61;52.41
27425;BME280;15244;49.088;11.886;2022-09-09T01:30:37;95579.44;;;19.46;53.94
27425;BME280;15244;49.088;11.886;2022-09-09T01:36:23;95575.00;;;19.48;53.85
27425;BME280;15244;49.088;11.886;2022-09-09T01:41:10;95571.00;;;19.49;53.94
27425;BME280;15244;49.088;11.886;2022-09-09T01:46:27;95567.47;;;19.49;54.13
27425;BME280;15244;49.088;11.886;2022-09-09T01:51:31;95568.72;;;19.48;54.05
27425;BME280;15244;49.088;11.886;2022-09-09T02:02:24;95578.34;;;19.43;54.01
27425;BME280;15244;49.088;11.886;2022-09-09T02:07:39;95572.47;;;19.41;53.79
27425;BME280;15244;49.088;11.886;2022-09-09T02:12:58;95573.38;;;19.38;53.69
27425;BME280;15244;49.088;11.886;2022-09-09T02:18:06;95573.50;;;19.35;53.67
27425;BME280;15244;49.088;11.886;2022-09-09T02:23:10;95575.94;;;19.33;53.57
27425;BME280;15244;49.088;11.886;2022-09-09T02:28:14;95569.72;;;19.28;53.43
27425;BME280;15244;49.088;11.886;2022-09-09T02:33:19;95569.41;;;19.26;53.43
27425;BME280;15244;49.088;11.886;2022-09-09T02:38:26;95565.22;;;19.22;53.19
27425;BME280;15244;49.088;11.886;2022-09-09T02:43:42;95557.50;;;19.17;53.20
27425;BME280;15244;49.088;11.886;2022-09-09T02:48:55;95558.06;;;19.12;52.98
27425;BME280;15244;49.088;11.886;2022-09-09T02:54:17;95565.25;;;19.09;52.98
27425;BME280;15244;49.088;11.886;2022-09-09T02:59:24;95563.00;;;19.04;53.10
27425;BME280;15244;49.088;11.886;2022-09-09T03:04:27;95563.13;;;19.00;53.12
27425;BME280;15244;49.088;11.886;2022-09-09T03:09:31;95552.63;;;18.95;53.36
27425;BME280;15244;49.088;11.886;2022-09-09T03:14:34;95554.28;;;18.93;53.46
27425;BME280;15244;49.088;11.886;2022-09-09T03:19:36;95543.38;;;18.89;53.67
27425;BME280;15244;49.088;11.886;2022-09-09T03:24:41;95554.06;;;18.87;53.65
27425;BME280;15244;49.088;11.886;2022-09-09T03:29:43;95553.31;;;18.87;53.85
27425;BME280;15244;49.088;11.886;2022-09-09T03:34:49;95567.56;;;18.85;54.03
27425;BME280;15244;49.088;11.886;2022-09-09T03:39:52;95566.00;;;18.84;53.97
27425;BME280;15244;49.088;11.886;2022-09-09T03:44:56;95563.69;;;18.82;54.27
27425;BME280;15244;49.088;11.886;2022-09-09T03:49:59;95566.88;;;18.81;54.62
27425;BME280;15244;49.088;11.886;2022-09-09T03:55:03;95566.88;;;18.81;54.84
27425;BME280;15244;49.088;11.886;2022-09-09T04:00:06;95565.78;;;18.78;54.91
27425;BME280;15244;49.088;11.886;2022-09-09T04:05:20;95567.75;;;18.78;55.04
27425;BME280;15244;49.088;11.886;2022-09-09T04:10:23;95574.50;;;18.77;55.03
27425;BME280;15244;49.088;11.886;2022-09-09T04:15:25;95570.53;;;18.78;55.07
27425;BME280;15244;49.088;11.886;2022-09-09T04:20:27;95574.50;;;18.77;54.87
27425;BME280;15244;49.088;11.886;2022-09-09T04:25:28;95564.66;;;18.76;54.89
27425;BME280;15244;49.088;11.886;2022-09-09T04:30:30;95574.56;;;18.73;54.80
27425;BME280;15244;49.088;11.886;2022-09-09T04:35:33;95569.50;;;18.72;54.40
27425;BME280;15244;49.088;11.886;2022-09-09T04:40:35;95572.34;;;18.68;54.52
27425;BME280;15244;49.088;11.886;2022-09-09T04:45:37;95560.22;;;18.66;54.77
27425;BME280;15244;49.088;11.886;2022-09-09T04:50:39;95549.63;;;18.64;54.61
27425;BME280;15244;49.088;11.886;2022-09-09T04:55:44;95552.03;;;18.62;54.77
27425;BME280;15244;49.088;11.886;2022-09-09T05:00:46;95547.41;;;18.59;54.65
27425;BME280;15244;49.088;11.886;2022-09-09T05:05:50;95548.59;;;18.58;54.73
27425;BME280;15244;49.088;11.886;2022-09-09T05:10:51;95554.94;;;18.58;54.99
27425;BME280;15244;49.088;11.886;2022-09-09T05:15:54;95556.47;;;18.59;55.13
27425;BME280;15244;49.088;11.886;2022-09-09T05:21:00;95551.28;;;18.61;55.00
27425;BME280;15244;49.088;11.886;2022-09-09T05:26:03;95555.91;;;18.65;55.18
27425;BME280;15244;49.088;11.886;2022-09-09T05:31:07;95568.81;;;18.68;55.03
27425;BME280;15244;49.088;11.886;2022-09-09T05:36:19;95570.69;;;18.71;55.05
27425;BME280;15244;49.088;11.886;2022-09-09T05:41:24;95577.03;;;18.71;54.85
27425;BME280;15244;49.088;11.886;2022-09-09T05:46:28;95591.13;;;18.73;54.83
27425;BME280;15244;49.088;11.886;2022-09-09T05:51:30;95597.88;;;18.72;54.94
27425;BME280;15244;49.088;11.886;2022-09-09T05:56:36;95605.06;;;18.70;54.62
27425;BME280;15244;49.088;11.886;2022-09-09T06:01:40;95605.19;;;18.66;54.69
27425;BME280;15244;49.088;11.886;2022-09-09T06:06:49;95598.09;;;18.65;54.78
27425;BME280;15244;49.088;11.886;2022-09-09T06:11:53;95602.09;;;18.64;55.19
27425;BME280;15244;49.088;11.886;2022-09-09T06:16:56;95606.38;;;18.65;55.05
27425;BME280;15244;49.088;11.886;2022-09-09T06:22:02;95598.88;;;18.66;55.25
27425;BME280;15244;49.088;11.886;2022-09-09T06:27:07;95598.00;;;18.69;55.36
27425;BME280;15244;49.088;11.886;2022-09-09T06:32:10;95605.41;;;18.72;55.35
27425;BME280;15244;49.088;11.886;2022-09-09T06:37:12;95602.91;;;18.77;55.32
27425;BME280;15244;49.088;11.886;2022-09-09T06:42:21;95608.63;;;18.83;55.37
27425;BME280;15244;49.088;11.886;2022-09-09T06:47:23;95611.97;;;18.91;55.23
27425;BME280;15244;49.088;11.886;2022-09-09T06:52:26;95606.56;;;19.00;55.35
27425;BME280;15244;49.088;11.886;2022-09-09T06:57:29;95620.03;;;19.11;55.15
27425;BME280;15244;49.088;11.886;2022-09-09T07:02:40;95608.09;;;19.26;55.42
27425;BME280;15244;49.088;11.886;2022-09-09T07:07:43;95620.69;;;19.40;55.06
27425;BME280;15244;49.088;11.886;2022-09-09T07:12:51;95623.13;;;19.51;54.77
27425;BME280;15244;49.088;11.886;2022-09-09T07:18:00;95627.75;;;19.54;54.70
27425;BME280;15244;49.088;11.886;2022-09-09T07:23:03;95622.22;;;19.54;54.37
27425;BME280;15244;49.088;11.886;2022-09-09T07:28:04;95626.97;;;19.54;54.38
27425;BME280;15244;49.088;11.886;2022-09-09T07:33:07;95630.50;;;19.54;54.26
27425;BME280;15244;49.088;11.886;2022-09-09T07:38:08;95635.72;;;19.52;54.40
27425;BME280;15244;49.088;11.886;2022-09-09T07:43:10;95634.94;;;19.52;54.73
27425;BME280;15244;49.088;11.886;2022-09-09T07:48:18;95644.47;;;19.51;54.60
27425;BME280;15244;49.088;11.886;2022-09-09T07:53:19;95659.50;;;19.49;55.01
27425;BME280;15244;49.088;11.886;2022-09-09T07:58:21;95672.22;;;19.47;54.76
27425;BME280;15244;49.088;11.886;2022-09-09T08:03:23;95653.66;;;19.47;54.97
27425;BME280;15244;49.088;11.886;2022-09-09T08:08:25;95678.06;;;19.49;54.99
27425;BME280;15244;49.088;11.886;2022-09-09T08:13:26;95677.66;;;19.51;55.04
27425;BME280;15244;49.088;11.886;2022-09-09T08:18:28;95661.06;;;19.51;54.79
27425;BME280;15244;49.088;11.886;2022-09-09T08:23:29;95672.53;;;19.49;54.45
27425;BME280;15244;49.088;11.886;2022-09-09T08:28:31;95674.66;;;19.45;54.61
27425;BME280;15244;49.088;11.886;2022-09-09T08:33:33;95674.13;;;19.50;54.93
27425;BME280;15244;49.088;11.886;2022-09-09T08:38:35;95679.09;;;19.55;55.10
27425;BME280;15244;49.088;11.886;2022-09-09T08:43:37;95676.53;;;19.61;54.99
27425;BME280;15244;49.088;11.886;2022-09-09T08:48:56;95676.88;;;19.63;54.94
27425;BME280;15244;49.088;11.886;2022-09-09T08:54:02;95670.03;;;19.67;55.20
27425;BME280;15244;49.088;11.886;2022-09-09T08:59:09;95678.41;;;19.77;55.12
27425;BME280;15244;49.088;11.886;2022-09-09T09:04:33;95680.53;;;19.85;55.06
27425;BME280;15244;49.088;11.886;2022-09-09T09:15:00;95687.00;;;20.04;55.15
27425;BME280;15244;49.088;11.886;2022-09-09T09:20:03;95682.88;;;20.09;54.72
27425;BME280;15244;49.088;11.886;2022-09-09T09:25:19;95678.78;;;20.13;54.79
27425;BME280;15244;49.088;11.886;2022-09-09T09:30:25;95678.97;;;20.19;54.59
27425;BME280;15244;49.088;11.886;2022-09-09T09:35:36;95676.22;;;20.19;54.49
27425;BME280;15244;49.088;11.886;2022-09-09T09:40:57;95674.09;;;20.23;54.45
27425;BME280;15244;49.088;11.886;2022-09-09T09:46:03;95662.47;;;20.28;54.43
27425;BME280;15244;49.088;11.886;2022-09-09T09:51:22;95663.75;;;20.37;54.32
27425;BME280;15244;49.088;11.886;2022-09-09T09:56:27;95664.72;;;20.43;54.32
27425;BME280;15244;49.088;11.886;2022-09-09T10:01:32;95675.03;;;20.42;54.37
27425;BME280;15244;49.088;11.886;2022-09-09T10:06:38;95664.59;;;20.46;54.67
27425;BME280;15244;49.088;11.886;2022-09-09T10:17:19;95662.72;;;20.56;54.14
27425;BME280;15244;49.088;11.886;2022-09-09T10:22:32;95665.53;;;20.65;53.75
27425;BME280;15244;49.088;11.886;2022-09-09T10:32:51;95651.78;;;20.84;53.11
27425;BME280;15244;49.088;11.886;2022-09-09T10:55:06;95639.69;;;21.62;52.08
27425;BME280;15244;49.088;11.886;2022-09-09T11:00:18;95627.06;;;21.79;51.51
27425;BME280;15244;49.088;11.886;2022-09-09T11:05:26;95645.00;;;21.97;51.66
27425;BME280;15244;49.088;11.886;2022-09-09T11:10:48;95634.38;;;22.14;51.29
27425;BME280;15244;49.088;11.886;2022-09-09T11:15:58;95642.72;;;22.23;49.51
27425;BME280;15244;49.088;11.886;2022-09-09T11:21:02;95632.41;;;22.33;49.45
27425;BME280;15244;49.088;11.886;2022-09-09T11:26:07;95617.88;;;22.38;49.50
27425;BME280;15244;49.088;11.886;2022-09-09T11:41:36;95620.00;;;22.80;48.71
27425;BME280;15244;49.088;11.886;2022-09-09T11:46:40;95628.59;;;22.91;48.16
27425;BME280;15244;49.088;11.886;2022-09-09T11:51:42;95630.63;;;22.90;47.03
27425;BME280;15244;49.088;11.886;2022-09-09T11:56:45;95624.28;;;22.90;47.02
27425;BME280;15244;49.088;11.886;2022-09-09T12:01:55;95613.78;;;22.94;47.39
27425;BME280;15244;49.088;11.886;2022-09-09T12:07:04;95611.19;;;23.00;47.07
27425;BME280;15244;49.088;11.886;2022-09-09T12:17:25;95624.56;;;23.10;46.74
27425;BME280;15244;49.088;11.886;2022-09-09T12:27:42;95617.47;;;23.09;46.32
27425;BME280;15244;49.088;11.886;2022-09-09T12:32:47;95606.19;;;23.13;46.28
27425;BME280;15244;49.088;11.886;2022-09-09T12:37:58;95602.44;;;23.25;46.84
27425;BME280;15244;49.088;11.886;2022-09-09T12:43:21;95594.63;;;23.39;47.08
27425;BME280;15244;49.088;11.886;2022-09-09T12:48:40;95587.00;;;23.48;46.93
27425;BME280;15244;49.088;11.886;2022-09-09T12:53:45;95590.50;;;23.58;45.96
27425;BME280;15244;49.088;11.886;2022-09-09T12:58:49;95594.94;;;23.65;45.96
27425;BME280;15244;49.088;11.886;2022-09-09T13:03:52;95583.94;;;23.70;45.29
27425;BME280;15244;49.088;11.886;2022-09-09T13:08:58;95564.47;;;23.70;44.82
27425;BME280;15244;49.088;11.886;2022-09-09T13:14:00;95553.94;;;23.74;44.62
27425;BME280;15244;49.088;11.886;2022-09-09T13:19:14;95543.13;;;23.67;44.36
27425;BME280;15244;49.088;11.886;2022-09-09T13:29:31;95537.00;;;23.87;44.56
27425;BME280;15244;49.088;11.886;2022-09-09T13:34:34;95536.16;;;23.96;44.15
27425;BME280;15244;49.088;11.886;2022-09-09T13:39:37;95532.22;;;24.02;44.13
27425;BME280;15244;49.088;11.886;2022-09-09T13:44:40;95526.59;;;24.12;44.66
27425;BME280;15244;49.088;11.886;2022-09-09T13:49:43;95525.31;;;24.13;44.38
27425;BME280;15244;49.088;11.886;2022-09-09T13:54:49;95529.75;;;24.19;44.88
27425;BME280;15244;49.088;11.886;2022-09-09T13:59:52;95518.34;;;24.32;45.08
27425;BME280;15244;49.088;11.886;2022-09-09T14:05:11;95514.41;;;24.39;45.14
27425;BME280;15244;49.088;11.886;2022-09-09T14:10:13;95533.63;;;24.37;44.55
27425;BME280;15244;49.088;11.886;2022-09-09T14:15:14;95512.31;;;24.34;44.51
27425;BME280;15244;49.088;11.886;2022-09-09T14:20:16;95516.06;;;24.31;44.63
27425;BME280;15244;49.088;11.886;2022-09-09T14:25:19;95507.69;;;24.31;44.43
27425;BME280;15244;49.088;11.886;2022-09-09T14:30:20;95505.38;;;24.29;43.95
27425;BME280;15244;49.088;11.886;2022-09-09T14:35:25;95506.34;;;24.41;44.16
27425;BME280;15244;49.088;11.886;2022-09-09T14:40:29;95508.88;;;24.54;43.61
27425;BME280;15244;49.088;11.886;2022-09-09T14:45:32;95516.16;;;24.66;43.41
27425;BME280;15244;49.088;11.886;2022-09-09T14:50:36;95517.78;;;24.73;43.22
27425;BME280;15244;49.088;11.886;2022-09-09T14:55:43;95518.06;;;24.75;43.37
27425;BME280;15244;49.088;11.886;2022-09-09T15:00:47;95519.22;;;24.68;43.30
27425;BME280;15244;49.088;11.886;2022-09-09T15:05:50;95519.81;;;24.57;42.97
27425;BME280;15244;49.088;11.886;2022-09-09T15:10:59;95506.47;;;24.47;43.48
27425;BME280;15244;49.088;11.886;2022-09-09T15:16:15;95516.31;;;24.33;43.30
27425;BME280;15244;49.088;11.886;2022-09-09T15:21:19;95515.38;;;24.21;43.39
27425;BME280;15244;49.088;11.886;2022-09-09T15:26:21;95513.13;;;24.10;43.30
27425;BME280;15244;49.088;11.886;2022-09-09T15:31:24;95500.06;;;24.01;43.31
27425;BME280;15244;49.088;11.886;2022-09-09T15:36:34;95505.44;;;23.90;43.70
27425;BME280;15244;49.088;11.886;2022-09-09T15:41:36;95501.66;;;23.78;43.88
27425;BME280;15244;49.088;11.886;2022-09-09T15:46:40;95502.75;;;23.72;43.85
27425;BME280;15244;49.088;11.886;2022-09-09T15:51:47;95494.00;;;23.64;44.13
27425;BME280;15244;49.088;11.886;2022-09-09T15:56:57;95514.13;;;23.59;44.27
27425;BME280;15244;49.088;11.886;2022-09-09T16:01:59;95533.09;;;23.46;44.34
27425;BME280;15244;49.088;11.886;2022-09-09T16:07:03;95515.31;;;23.43;44.24
27425;BME280;15244;49.088;11.886;2022-09-09T16:12:05;95510.56;;;23.34;44.67
27425;BME280;15244;49.088;11.886;2022-09-09T16:17:13;95512.06;;;23.21;44.70
27425;BME280;15244;49.088;11.886;2022-09-09T16:22:15;95577.00;;;23.08;44.64
27425;BME280;15244;49.088;11.886;2022-09-09T16:27:17;95571.81;;;22.73;42.93
27425;BME280;15244;49.088;11.886;2022-09-09T16:32:19;95600.59;;;22.43;43.20
27425;BME280;15244;49.088;11.886;2022-09-09T16:37:21;95611.84;;;22.12;44.09
27425;BME280;15244;49.088;11.886;2022-09-09T16:42:22;95604.44;;;21.81;45.03
27425;BME280;15244;49.088;11.886;2022-09-09T16:47:24;95577.72;;;21.15;43.89
27425;BME280;15244;49.088;11.886;2022-09-09T16:52:26;95562.84;;;20.91;43.68
27425;BME280;15244;49.088;11.886;2022-09-09T16:57:28;95536.06;;;20.88;43.97
27425;BME280;15244;49.088;11.886;2022-09-09T17:02:31;95532.53;;;20.87;43.78
27425;BME280;15244;49.088;11.886;2022-09-09T17:07:33;95535.56;;;20.80;43.33
27425;BME280;15244;49.088;11.886;2022-09-09T17:12:34;95533.97;;;20.70;43.46
27425;BME280;15244;49.088;11.886;2022-09-09T17:17:42;95544.13;;;20.64;43.89
27425;BME280;15244;49.088;11.886;2022-09-09T17:22:46;95548.25;;;20.59;44.17
27425;BME280;15244;49.088;11.886;2022-09-09T17:27:47;95542.50;;;20.53;45.04
27425;BME280;15244;49.088;11.886;2022-09-09T17:32:49;95555.25;;;20.51;45.55
27425;BME280;15244;49.088;11.886;2022-09-09T17:37:52;95565.22;;;20.48;45.87
27425;BME280;15244;49.088;11.886;2022-09-09T17:42:56;95579.53;;;20.47;46.17
27425;BME280;15244;49.088;11.886;2022-09-09T17:47:58;95592.41;;;20.41;46.19
27425;BME280;15244;49.088;11.886;2022-09-09T17:53:00;95588.34;;;20.32;46.13
27425;BME280;15244;49.088;11.886;2022-09-09T17:58:01;95585.06;;;20.25;46.52
27425;BME280;15244;49.088;11.886;2022-09-09T18:03:03;95593.84;;;20.23;46.83
27425;BME280;15244;49.088;11.886;2022-09-09T18:08:05;95599.81;;;20.22;47.28
27425;BME280;15244;49.088;11.886;2022-09-09T18:13:06;95607.47;;;20.18;47.54
27425;BME280;15244;49.088;11.886;2022-09-09T18:18:10;95621.00;;;20.16;47.67
27425;BME280;15244;49.088;11.886;2022-09-09T18:23:12;95619.09;;;20.12;47.92
27425;BME280;15244;49.088;11.886;2022-09-09T18:28:13;95639.50;;;20.06;48.10
27425;BME280;15244;49.088;11.886;2022-09-09T18:33:15;95641.63;;;20.02;48.03
27425;BME280;15244;49.088;11.886;2022-09-09T18:38:17;95651.91;;;20.01;48.41
27425;BME280;15244;49.088;11.886;2022-09-09T18:43:18;95656.47;;;19.95;48.58
27425;BME280;15244;49.088;11.886;2022-09-09T18:48:22;95653.38;;;19.93;48.38
27425;BME280;15244;49.088;11.886;2022-09-09T18:53:24;95660.25;;;19.88;48.44
27425;BME280;15244;49.088;11.886;2022-09-09T18:58:25;95654.38;;;19.86;48.42
27425;BME280;15244;49.088;11.886;2022-09-09T19:03:28;95663.13;;;19.85;48.35
27425;BME280;15244;49.088;11.886;2022-09-09T19:08:33;95670.31;;;19.82;48.58
27425;BME280;15244;49.088;11.886;2022-09-09T19:13:38;95677.50;;;19.80;48.79
27425;BME280;15244;49.088;11.886;2022-09-09T19:18:40;95678.41;;;19.77;48.95
27425;BME280;15244;49.088;11.886;2022-09-09T19:23:46;95675.78;;;19.73;49.17
27425;BME280;15244;49.088;11.886;2022-09-09T19:28:48;95671.91;;;19.70;49.28
27425;BME280;15244;49.088;11.886;2022-09-09T19:33:51;95663.28;;;19.68;49.55
27425;BME280;15244;49.088;11.886;2022-09-09T19:38:54;95655.41;;;19.67;49.44
27425;BME280;15244;49.088;11.886;2022-09-09T19:44:01;95664.56;;;19.64;49.39
27425;BME280;15244;49.088;11.886;2022-09-09T19:49:05;95675.44;;;19.58;49.37
27425;BME280;15244;49.088;11.886;2022-09-09T19:54:09;95680.28;;;19.54;49.54
27425;BME280;15244;49.088;11.886;2022-09-09T19:59:12;95693.00;;;19.52;49.59
27425;BME280;15244;49.088;11.886;2022-09-09T20:04:14;95679.31;;;19.48;49.86
27425;BME280;15244;49.088;11.886;2022-09-09T20:09:16;95676.63;;;19.44;49.86
27425;BME280;15244;49.088;11.886;2022-09-09T20:14:18;95678.28;;;19.42;49.95
27425;BME280;15244;49.088;11.886;2022-09-09T20:19:21;95685.94;;;19.38;50.23
27425;BME280;15244;49.088;11.886;2022-09-09T20:24:24;95679.41;;;19.32;50.31
27425;BME280;15244;49.088;11.886;2022-09-09T20:29:26;95671.56;;;19.30;50.42
27425;BME280;15244;49.088;11.886;2022-09-09T20:34:28;95664.16;;;19.27;51.00
27425;BME280;15244;49.088;11.886;2022-09-09T20:39:31;95667.78;;;19.24;50.83
27425;BME280;15244;49.088;11.886;2022-09-09T20:44:33;95677.75;;;19.21;50.94
27425;BME280;15244;49.088;11.886;2022-09-09T20:49:34;95705.03;;;19.07;50.98
27425;BME280;15244;49.088;11.886;2022-09-09T20:54:36;95709.53;;;18.88;51.04
27425;BME280;15244;49.088;11.886;2022-09-09T20:59:39;95708.69;;;18.74;51.04
27425;BME280;15244;49.088;11.886;2022-09-09T21:04:42;95720.63;;;18.71;51.36
27425;BME280;15244;49.088;11.886;2022-09-09T21:09:45;95727.69;;;18.72;51.19
27425;BME280;15244;49.088;11.886;2022-09-09T21:14:46;95730.09;;;18.70;51.29
27425;BME280;15244;49.088;11.886;2022-09-09T21:19:48;95712.66;;;18.73;51.51
27425;BME280;15244;49.088;11.886;2022-09-09T21:24:49;95707.84;;;18.77;51.38
27425;BME280;15244;49.088;11.886;2022-09-09T21:29:51;95705.50;;;18.76;51.42
27425;BME280;15244;49.088;11.886;2022-09-09T21:34:53;95707.41;;;18.79;51.43
27425;BME280;15244;49.088;11.886;2022-09-09T21:39:54;95701.44;;;18.80;51.70
27425;BME280;15244;49.088;11.886;2022-09-09T21:44:56;95703.09;;;18.78;51.80
27425;BME280;15244;49.088;11.886;2022-09-09T21:49:59;95707.06;;;18.77;51.96
27425;BME280;15244;49.088;11.886;2022-09-09T21:55:01;95712.66;;;18.73;51.61
27425;BME280;15244;49.088;11.886;2022-09-09T22:00:05;95707.13;;;18.73;51.77
27425;BME280;15244;49.088;11.886;2022-09-09T22:05:13;95715.69;;;18.79;52.08
27425;BME280;15244;49.088;11.886;2022-09-09T22:10:14;95723.19;;;18.78;52.21
27425;BME280;15244;49.088;11.886;2022-09-09T22:15:16;95733.47;;;18.78;52.20
27425;BME280;15244;49.088;11.886;2022-09-09T22:20:18;95724.84;;;18.76;52.29
27425;BME280;15244;49.088;11.886;2022-09-09T22:25:20;95726.03;;;18.75;52.56
27425;BME280;15244;49.088;11.886;2022-09-09T22:30:22;95727.69;;;18.72;52.01
27425;BME280;15244;49.088;11.886;2022-09-09T22:35:23;95726.16;;;18.71;52.44
27425;BME280;15244;49.088;11.886;2022-09-09T22:40:25;95727.34;;;18.70;52.55
27425;BME280;15244;49.088;11.886;2022-09-09T22:45:26;95725.47;;;18.67;52.44
27425;BME280;15244;49.088;11.886;2022-09-09T22:50:32;95723.56;;;18.64;52.62
27425;BME280;15244;49.088;11.886;2022-09-09T22:55:40;95715.72;;;18.62;52.54
27425;BME280;15244;49.088;11.886;2022-09-09T23:00:42;95714.19;;;18.61;52.57
27425;BME280;15244;49.088;11.886;2022-09-09T23:05:52;95717.03;;;18.58;52.42
27425;BME280;15244;49.088;11.886;2022-09-09T23:10:53;95721.44;;;18.55;52.50
27425;BME280;15244;49.088;11.886;2022-09-09T23:15:56;95711.94;;;18.56;52.78
27425;BME280;15244;49.088;11.886;2022-09-09T23:20:58;95715.47;;;18.57;52.80
27425;BME280;15244;49.088;11.886;2022-09-09T23:26:03;95706.84;;;18.55;52.73
27425;BME280;15244;49.088;11.886;2022-09-09T23:31:07;95716.00;;;18.52;52.57
27425;BME280;15244;49.088;11.886;2022-09-09T23:36:13;95714.91;;;18.49;52.64
27425;BME280;15244;49.088;11.886;2022-09-09T23:41:17;95710.25;;;18.46;52.57
27425;BME280;15244;49.088;11.886;2022-09-09T23:46:24;95701.28;;;18.42;52.67
27425;BME280;15244;49.088;11.886;2022-09-09T23:51:32;95708.03;;;18.41;52.64
27425;BME280;15244;49.088;11.886;2022-09-09T23:56:37;95704.16;;;18.38;52.59
